Terminal Aerodrome Forecast
Issued by NWS

Current Version | Previous Version | Graphics & Text | Print | Product List | Glossary On
Versions: 1 2 3 4 5 6 7 8 9 10 11 12 13 14 15 16 17 18 19 20 21 22 23 24 25 26 27 28 29 30 31 32 33 34 35 36 37 38 39 40 41 42 43 44 45 46 47 48
000
FTUS41 KRNK 270533
TAFLWB
TAF
KLWB 270533Z 2706/2806 00000KT 3SM BR SCT080
     FM270900 00000KT 1/4SM FG OVC001
     FM271300 26005KT P6SM SCT015 OVC035
     FM271700 29004KT P6SM VCTS BKN040CB
     FM272300 VRB03KT P6SM SCT090=

USA.gov is the U.S. government's official web portal to all federal, state and local government web resources and services.